AirNav   TITAN Aviation Fuels
 
 1024 users online  

MN58 Sky Meadow Airport
Hastings, Minnesota, USA

GOING TO HASTINGS?


FAA INFORMATION EFFECTIVE 03 NOVEMBER 2022

Location

FAA Identifier: MN58
Lat/Long: 44-41-51.8820N 092-51-50.7390W
44-41.864700N 092-51.845650W
44.6977450,-92.8640942
(estimated)
Elevation: 820 ft. / 249.9 m (surveyed)
Variation: 03E (1985)
From city: 3 miles S of HASTINGS, MN
Time zone: UTC -6 (UTC -5 during Daylight Saving Time)
Zip code: 55033

Airport Operations

Airport use: Private use. Permission required prior to landing
Activation date: 12/1961
Control tower: no
ARTCC: MINNEAPOLIS CENTER
FSS: PRINCETON FLIGHT SERVICE STATION
Attendance: IREG
Wind indicator: yes
Segmented circle: no
Lights: ACTVT LIRL RWY 18/36 - CALL AMGR.

Airport Communications

CTAF: 122.9
WX AWOS-3 at SGS (12 nm NW): 119.425 (651-457-8120)
WX AWOS-3 at SYN (15 nm SW): 119.35 (507-664-3806)
WX AWOS-3 at LVN (16 nm W): 118.0 (952-469-5850)
WX ASOS at STP (16 nm NW): 118.35 (651-312-8888)
WX AWOS-3 at RGK (17 nm E): 119.25 (715-594-3763)
WX AWOS-3 at 21D (18 nm N): 120.075 (651-779-5949)
WX ASOS at MSP (19 nm NW): PHONE 612-713-4174

Nearby radio navigation aids

VOR radial/distance  VOR name  Freq  Var
FGTr068/14.1FARMINGTON VORTAC115.7006E
MSPr125/19.8MINNEAPOLIS VOR/DME115.3002E
FCMr106/25.8FLYING CLOUD VOR/DME117.7001E
GEPr135/34.5GOPHER VORTAC117.3006E
FOWr034/36.7HALFWAY VOR/DME111.2002E

 
NDB name  Hdg/Dist  Freq  Var  ID
REGUE301/11.027402ERG .-. --.

Airport Services

Airframe service: NONE
Powerplant service: NONE

Runway Information

Runway 18/36

Dimensions: 2300 x 125 ft. / 701 x 38 m
Surface: turf
Runway edge lights: low intensity
RUNWAY 18  RUNWAY 36
Traffic pattern: leftleft

Airport Ownership and Management from official FAA records

Ownership: Privately-owned
Owner: ROBERT W WEBER
17238 KNOX PATH
HASTINGS, MN 55033-9345
Phone 623-521-6718
Manager: ROBERT W WEBER
17238 KNOX PATH
HASTINGS, MN 55033-9345
Phone 623-521-6718

Airport Operational Statistics

Aircraft based on the field: 4
Single engine airplanes: 4
    

Additional Remarks

DO NOT CHART PER MINNESOTA DEPARTMENT OF TRANSPORTATION
FOR CD CTC MINNEAPOLIS ARTCC AT 651-463-5588.

Instrument Procedures

There are no published instrument procedures at MN58.

Some nearby airports with instrument procedures:

KSGS - South St Paul Municipal Airport/Richard E Fleming Field (12 nm NW)
KLVN - Airlake Airport (16 nm W)
KSTP - St Paul Downtown Airport Holman Field (16 nm NW)
KRGK - Red Wing Regional Airport (17 nm E)
21D - Lake Elmo Airport (18 nm N)
KMSP - Minneapolis-St Paul International/Wold-Chamberlain Airport (19 nm NW)
 
Loc | Ops | Rwys | IFR | FBO | Links
Com | Nav | Svcs | Stats | Notes
Area around MN58 (Sky Meadow Airport)
 
Road maps at: MapQuest Bing Google
 
Aerial photo
No photo
 
Sectional chart

 
Airport distance calculator
Flying to Sky Meadow Airport? Find the distance to fly.

From to MN58

Sunrise and sunset
Times for 26-Nov-2022
 Local
(UTC-6)
 Zulu
(UTC)
Morning civil twilight06:5112:51
Sunrise07:2413:24
Sunset16:3422:34
Evening civil twilight17:0723:07

Current date and time
Zulu (UTC)  26-Nov-2022 16:53:34
Local (UTC-6)  26-Nov-2022 10:53:34
 
METAR
KSYN 
15nm SW 
261635Z AUTO 19013G16KT 10SM CLR 09/M02 A2975 RMK AO2 T00851017
KSGS 
15nm NW 
261635Z AUTO 19011KT 10SM CLR 08/M03 A2972 RMK AO2 T00801031
KLVN 
16nm W 
261635Z AUTO 20010G14KT 10SM CLR 08/M03 A2973 RMK AO2
KSTP 
16nm NW 
261553Z 14009KT 10SM CLR 08/M02 A2971 RMK AO2 SLP064 T00781022
K21D 
18nm N 
261635Z AUTO 20016G19KT 10SM CLR 07/M02 A2972 RMK AO2
KRGK 
19nm SE 
261635Z AUTO 22006KT 10SM CLR 09/M04 A2977 RMK AO2
KMSP 
19nm NW 
261553Z 19008KT 10SM FEW250 08/M04 A2970 RMK AO2 SLP063 T00831044
KFCM 
27nm W 
261553Z 20012KT 10SM CLR 08/M04 A2969 RMK AO2 SLP058 T00781039
TAF
KMSP 
19nm NW 
261511Z 2615/2718 20008KT P6SM FEW250 FM261600 21012G20KT P6SM SCT250 FM262200 31009KT P6SM SCT250 FM270600 34010KT P6SM BKN200 FM271000 35007KT P6SM OVC050
NOTAMs
Click for the latest NOTAMs
NOTAMs are issued by the DoD/FAA and will open in a separate window not controlled by AirNav.

 

 
 

Would you like to see your business listed on this page?

 If your business provides an interesting product or service to pilots, flight crews, aircraft, or users of the Sky Meadow Airport, you should consider listing it here.  To start the listing process, click on the button below
 
Add a business
 

Other Pages about Sky Meadow Airport

Update a link
 
Copyright © AirNav, LLC. All rights reserved. Privacy Policy  Contact